Time;durP1;ratioP1;P1;durP2;ratioP2;P2;SDS_P1;SDS_P2;PMS_P1;PMS_P2;Temp;Humidity;BMP_temperature;BMP_pressure;BME280_temperature;BME280_humidity;BME280_pressure;Samples;Min_cycle;Max_cycle;Signal;HPM_P1;HPM_P2
2024/01/10 00:00:06;;;;;;;41.43;37.80;;;;;;;-2.99;100.00;103603.91;5028876;28;20491;-42
2024/01/10 00:02:35;;;;;;;41.83;37.20;;;;;;;-2.99;100.00;103600.44;5023023;28;20437;-43
2024/01/10 00:05:04;;;;;;;44.90;40.80;;;;;;;-3.02;100.00;103590.94;5014245;28;20495;-43
2024/01/10 00:07:32;;;;;;;42.20;38.43;;;;;;;-3.05;100.00;103595.38;5032601;28;20824;-45
2024/01/10 00:10:01;;;;;;;39.10;35.70;;;;;;;-3.09;100.00;103598.94;5033283;28;20436;-42
2024/01/10 00:12:33;;;;;;;42.33;38.03;;;;;;;-3.12;100.00;103589.44;5033897;28;20443;-43
2024/01/10 00:15:01;;;;;;;42.30;38.00;;;;;;;-3.15;100.00;103599.97;5033973;28;20498;-43
2024/01/10 00:17:29;;;;;;;41.90;37.80;;;;;;;-3.19;100.00;103593.09;5024414;28;20534;-43
2024/01/10 00:19:58;;;;;;;42.70;38.50;;;;;;;-3.22;100.00;103582.75;5033155;28;20432;-45
2024/01/10 00:22:25;;;;;;;39.40;35.67;;;;;;;-3.26;100.00;103580.25;5033257;28;20447;-43
2024/01/10 00:24:53;;;;;;;40.37;36.33;;;;;;;-3.30;100.00;103579.47;5033530;28;20432;-44
2024/01/10 00:27:21;;;;;;;43.07;38.63;;;;;;;-3.36;100.00;103583.09;5033501;28;20452;-42
2024/01/10 00:29:51;;;;;;;41.50;37.60;;;;;;;-3.40;100.00;103576.22;5021431;28;20456;-43
2024/01/10 00:32:18;;;;;;;43.27;39.00;;;;;;;-3.44;100.00;103577.22;5032468;28;20432;-45
2024/01/10 00:34:46;;;;;;;44.00;39.97;;;;;;;-3.46;100.00;103576.38;5017804;28;21006;-43
2024/01/10 00:37:15;;;;;;;45.03;40.80;;;;;;;-3.47;100.00;103572.09;5033279;28;20827;-46
2024/01/10 00:39:43;;;;;;;42.60;38.77;;;;;;;-3.49;100.00;103571.25;5032706;28;20518;-44
2024/01/10 00:42:11;;;;;;;42.60;38.23;;;;;;;-3.53;100.00;103571.38;5033117;28;20458;-43
2024/01/10 00:44:39;;;;;;;42.50;38.50;;;;;;;-3.58;100.00;103568.00;5030643;28;20919;-43
2024/01/10 00:47:06;;;;;;;41.77;37.60;;;;;;;-3.64;100.00;103563.78;5028151;28;20440;-44
2024/01/10 00:49:35;;;;;;;43.27;38.90;;;;;;;-3.67;100.00;103561.25;5024110;28;20979;-45
2024/01/10 00:52:04;;;;;;;41.73;37.40;;;;;;;-3.72;100.00;103562.25;5032950;28;20432;-47
2024/01/10 00:54:33;;;;;;;42.87;38.77;;;;;;;-3.77;100.00;103577.16;5022993;28;20484;-43
2024/01/10 00:57:00;;;;;;;42.17;38.30;;;;;;;-3.81;100.00;103563.34;5021410;28;20472;-45
2024/01/10 00:59:28;;;;;;;42.17;37.67;;;;;;;-3.83;100.00;103572.09;5021434;28;20466;-48
2024/01/10 01:01:56;;;;;;;42.80;37.47;;;;;;;-3.83;100.00;103575.56;5032278;28;20478;-43
2024/01/10 01:04:23;;;;;;;42.97;38.37;;;;;;;-3.85;100.00;103566.06;5024216;28;20461;-43
2024/01/10 01:06:51;;;;;;;41.40;37.50;;;;;;;-3.83;100.00;103569.47;5025874;28;20443;-44
2024/01/10 01:09:19;;;;;;;42.77;38.67;;;;;;;-3.79;100.00;103563.31;5024228;28;20464;-43
2024/01/10 01:11:48;;;;;;;41.80;37.70;;;;;;;-3.77;100.00;103559.78;5004876;28;20443;-42
2024/01/10 01:14:16;;;;;;;41.93;37.23;;;;;;;-3.75;100.00;103554.50;5028180;28;20900;-43
2024/01/10 01:16:44;;;;;;;41.80;37.80;;;;;;;-3.74;100.00;103556.22;5024461;28;20436;-43
2024/01/10 01:19:11;;;;;;;44.07;39.37;;;;;;;-3.76;100.00;103558.88;5031844;28;21020;-43
2024/01/10 01:21:39;;;;;;;43.53;39.33;;;;;;;-3.78;100.00;103552.84;5032422;28;20490;-44
2024/01/10 01:24:07;;;;;;;43.53;39.03;;;;;;;-3.78;100.00;103557.19;5032776;28;20437;-46
2024/01/10 01:26:35;;;;;;;42.10;38.07;;;;;;;-3.81;100.00;103547.69;5032242;28;20475;-45
2024/01/10 01:29:04;;;;;;;43.30;38.87;;;;;;;-3.82;100.00;103547.75;5031928;28;20488;-44
2024/01/10 01:31:32;;;;;;;45.40;40.17;;;;;;;-3.90;100.00;103542.69;5030880;28;20807;-44
2024/01/10 01:34:00;;;;;;;41.43;37.30;;;;;;;-3.96;100.00;103550.66;5025766;28;20471;-46
2024/01/10 01:36:28;;;;;;;41.47;37.37;;;;;;;-3.99;100.00;103550.72;5032295;28;20519;-46
2024/01/10 01:38:55;;;;;;;47.07;38.90;;;;;;;-4.04;100.00;103544.78;5031277;28;20551;-45
2024/01/10 01:41:23;;;;;;;44.57;40.27;;;;;;;-4.06;100.00;103539.56;5031358;28;20432;-45
2024/01/10 01:43:51;;;;;;;45.50;40.70;;;;;;;-4.06;100.00;103536.97;5032102;28;20880;-42
2024/01/10 01:46:20;;;;;;;47.47;42.57;;;;;;;-4.11;100.00;103545.78;5031748;28;20428;-44
2024/01/10 01:48:49;;;;;;;43.33;38.93;;;;;;;-4.16;100.00;103543.31;5031147;28;20553;-45
2024/01/10 01:51:21;;;;;;;44.77;40.20;;;;;;;-4.22;100.00;103540.84;5031964;28;20432;-46
2024/01/10 01:53:50;;;;;;;44.67;40.33;;;;;;;-4.29;100.00;103539.25;5028604;28;20472;-43
2024/01/10 01:56:18;;;;;;;41.73;37.77;;;;;;;-4.35;100.00;103538.50;5020315;28;20523;-43
2024/01/10 01:58:47;;;;;;;44.13;39.70;;;;;;;-4.41;100.00;103533.44;5011420;28;20534;-44
2024/01/10 02:01:15;;;;;;;43.60;39.30;;;;;;;-4.45;100.00;103524.84;5026665;28;20939;-44
2024/01/10 02:03:45;;;;;;;43.57;39.27;;;;;;;-4.51;100.00;103528.41;5029493;28;20943;-43
2024/01/10 02:06:13;;;;;;;43.10;38.80;;;;;;;-4.56;100.00;103532.00;5012030;28;20432;-43
2024/01/10 02:08:41;;;;;;;43.07;38.57;;;;;;;-4.59;100.00;103539.88;5027707;28;20478;-43
2024/01/10 02:11:09;;;;;;;41.43;37.63;;;;;;;-4.64;100.00;103532.19;5026649;28;20490;-43
2024/01/10 02:13:37;;;;;;;48.23;38.20;;;;;;;-4.68;100.00;103529.66;5032024;28;20436;-43
2024/01/10 02:16:06;;;;;;;41.63;37.47;;;;;;;-4.72;100.00;103534.06;5032105;28;20432;-43
2024/01/10 02:18:35;;;;;;;40.10;36.10;;;;;;;-4.76;100.00;103524.63;5029521;28;20460;-44
2024/01/10 02:21:05;;;;;;;42.83;38.83;;;;;;;-4.78;100.00;103533.34;5025138;28;20506;-46
2024/01/10 02:23:32;;;;;;;43.53;39.23;;;;;;;-4.81;100.00;103523.00;5030918;28;20512;-44
2024/01/10 02:26:02;;;;;;;42.70;38.60;;;;;;;-4.84;100.00;103529.13;5031347;28;20459;-43
2024/01/10 02:28:30;;;;;;;40.40;36.43;;;;;;;-4.89;100.00;103528.34;5030941;28;20981;-43
2024/01/10 02:30:58;;;;;;;42.93;38.23;;;;;;;-4.91;100.00;103521.44;5031564;28;20506;-45
2024/01/10 02:33:26;;;;;;;46.33;41.60;;;;;;;-4.94;100.00;103519.78;5031817;28;20939;-43
2024/01/10 02:35:54;;;;;;;40.77;36.63;;;;;;;-4.96;100.00;103525.91;5016578;28;20471;-43
2024/01/10 02:38:23;;;;;;;42.40;38.40;;;;;;;-4.99;100.00;103520.75;5023210;28;20539;-44
2024/01/10 02:40:51;;;;;;;44.00;39.50;;;;;;;-4.99;100.00;103515.56;5015715;28;20482;-43
2024/01/10 02:43:20;;;;;;;43.83;39.20;;;;;;;-5.04;100.00;103513.88;5031476;28;20466;-44
2024/01/10 02:45:49;;;;;;;40.23;36.17;;;;;;;-5.05;100.00;103512.16;5023191;28;20425;-44
2024/01/10 02:48:17;;;;;;;44.10;39.40;;;;;;;-5.08;100.00;103527.81;5030517;28;20535;-50
2024/01/10 02:50:45;;;;;;;43.33;38.93;;;;;;;-5.09;100.00;103523.53;5031343;28;20428;-43
2024/01/10 02:53:12;;;;;;;42.83;38.40;;;;;;;-5.09;100.00;103533.06;5032375;28;20772;-43
2024/01/10 02:55:41;;;;;;;41.80;38.10;;;;;;;-5.14;100.00;103524.50;5026721;28;20476;-43
2024/01/10 02:58:09;;;;;;;43.13;38.67;;;;;;;-5.14;100.00;103540.13;5034869;28;20559;-43
2024/01/10 03:00:38;;;;;;;40.60;36.63;;;;;;;-5.18;100.00;103533.25;5034814;28;20432;-43
2024/01/10 03:03:06;;;;;;;42.40;38.00;;;;;;;-5.20;100.00;103540.22;5035728;28;20914;-43
2024/01/10 03:05:34;;;;;;;43.80;39.20;;;;;;;-5.25;100.00;103536.81;5035543;28;20432;-43
2024/01/10 03:08:02;;;;;;;43.93;39.00;;;;;;;-5.25;100.00;103542.88;5035279;28;20538;-43
2024/01/10 03:10:30;;;;;;;44.10;39.60;;;;;;;-5.28;100.00;103535.13;5034982;28;20437;-44
2024/01/10 03:12:57;;;;;;;44.10;39.90;;;;;;;-5.31;100.00;103534.34;5035393;28;20463;-42
2024/01/10 03:15:25;;;;;;;42.97;38.77;;;;;;;-5.33;100.00;103543.91;5035651;28;20491;-43
2024/01/10 03:17:55;;;;;;;42.67;38.67;;;;;;;-5.35;100.00;103530.97;5034413;28;20526;-43
2024/01/10 03:20:23;;;;;;;45.27;40.57;;;;;;;-5.39;100.00;103529.28;5034506;28;20985;-44
2024/01/10 03:22:51;;;;;;;42.20;37.90;;;;;;;-5.41;100.00;103538.88;5026910;28;20460;-43
2024/01/10 03:25:19;;;;;;;43.17;38.83;;;;;;;-5.41;100.00;103535.41;5026868;28;20868;-43
2024/01/10 03:27:46;;;;;;;43.33;38.90;;;;;;;-5.42;100.00;103529.34;5034186;28;20464;-43
2024/01/10 03:30:14;;;;;;;44.40;39.73;;;;;;;-5.40;100.00;103539.69;5035255;28;20494;-44
2024/01/10 03:32:42;;;;;;;43.70;39.20;;;;;;;-5.39;100.00;103538.81;5034412;28;20436;-44
2024/01/10 03:35:12;;;;;;;41.03;36.93;;;;;;;-5.35;100.00;103536.16;5034306;28;20844;-44
2024/01/10 03:37:39;;;;;;;43.40;39.40;;;;;;;-5.30;100.00;103538.66;5033465;28;20464;-42
2024/01/10 03:40:08;;;;;;;42.17;38.17;;;;;;;-5.29;100.00;103533.44;5025295;28;20446;-43
2024/01/10 03:42:36;;;;;;;40.77;36.60;;;;;;;-5.28;100.00;103529.06;5033655;28;20436;-43
2024/01/10 03:45:04;;;;;;;42.00;37.90;;;;;;;-5.25;100.00;103535.09;5026163;28;20424;-43
2024/01/10 03:47:32;;;;;;;41.87;37.47;;;;;;;-5.23;100.00;103530.75;5033348;28;20456;-43
2024/01/10 03:50:00;;;;;;;42.10;38.13;;;;;;;-5.23;100.00;103532.47;5033985;28;20432;-43
2024/01/10 03:52:29;;;;;;;41.03;37.23;;;;;;;-5.24;100.00;103531.63;5034494;28;20544;-43
2024/01/10 03:54:57;;;;;;;42.70;38.60;;;;;;;-5.26;100.00;103530.78;5025596;28;20483;-43
2024/01/10 03:57:25;;;;;;;42.50;37.30;;;;;;;-5.24;100.00;103530.75;5026134;28;20476;-43
2024/01/10 03:59:53;;;;;;;40.90;36.53;;;;;;;-5.25;100.00;103532.50;5033323;28;20908;-43
2024/01/10 04:02:21;;;;;;;43.10;39.10;;;;;;;-5.21;100.00;103530.69;5034044;28;20527;-44
2024/01/10 04:04:50;;;;;;;41.30;36.80;;;;;;;-5.20;100.00;103533.28;5033997;28;20951;-43
2024/01/10 04:07:17;;;;;;;41.67;37.30;;;;;;;-5.15;100.00;103530.59;5033895;28;20456;-45
2024/01/10 04:09:46;;;;;;;43.70;39.07;;;;;;;-5.11;100.00;103543.50;5024486;28;20463;-42
2024/01/10 04:12:14;;;;;;;41.27;37.10;;;;;;;-5.05;100.00;103542.53;5025942;28;20462;-43
2024/01/10 04:14:41;;;;;;;44.10;39.63;;;;;;;-4.96;100.00;103551.91;5034200;28;20436;-42
2024/01/10 04:17:09;;;;;;;41.37;37.17;;;;;;;-4.90;100.00;103537.06;5020731;28;20928;-43
2024/01/10 04:19:37;;;;;;;43.20;39.00;;;;;;;-4.81;100.00;103541.22;5022351;28;20461;-43
2024/01/10 04:22:05;;;;;;;45.20;40.50;;;;;;;-4.69;100.00;103541.81;5029910;28;20464;-43
2024/01/10 04:24:33;;;;;;;46.00;41.23;;;;;;;-4.57;100.00;103540.72;5030037;28;21009;-43
2024/01/10 04:27:02;;;;;;;43.90;39.60;;;;;;;-4.47;100.00;103537.03;5024752;28;20447;-42
2024/01/10 04:29:29;;;;;;;49.77;40.90;;;;;;;-4.38;100.00;103543.78;5032672;28;20483;-44
2024/01/10 04:31:57;;;;;;;43.27;39.17;;;;;;;-4.32;100.00;103541.03;5033825;28;20460;-44
2024/01/10 04:34:25;;;;;;;41.90;37.90;;;;;;;-4.27;100.00;103547.03;5033507;28;20433;-44
2024/01/10 04:36:53;;;;;;;45.37;40.77;;;;;;;-4.22;100.00;103551.25;5033309;28;20479;-44
2024/01/10 04:39:21;;;;;;;39.80;35.97;;;;;;;-4.19;100.00;103547.72;5032524;28;20547;-44
2024/01/10 04:41:49;;;;;;;41.17;36.97;;;;;;;-4.19;100.00;103542.50;5032976;28;20432;-46
2024/01/10 04:44:18;;;;;;;42.70;38.30;;;;;;;-4.19;100.00;103542.50;5033178;28;20436;-45
2024/01/10 04:46:46;;;;;;;42.13;37.80;;;;;;;-4.20;100.00;103541.66;5033316;28;20433;-46
2024/01/10 04:49:14;;;;;;;44.40;37.03;;;;;;;-4.20;100.00;103541.66;5032664;28;20466;-43
2024/01/10 04:51:42;;;;;;;43.90;36.93;;;;;;;-4.21;100.00;103542.53;5032273;28;20535;-45
2024/01/10 04:54:10;;;;;;;51.33;40.43;;;;;;;-4.19;100.00;103537.28;5031210;28;21081;-43
2024/01/10 04:56:39;;;;;;;46.73;41.73;;;;;;;-4.17;100.00;103535.50;5032930;28;20475;-43
2024/01/10 04:59:07;;;;;;;50.60;41.60;;;;;;;-4.15;100.00;103538.94;5032410;28;20499;-44
2024/01/10 05:01:36;;;;;;;42.20;37.60;;;;;;;-4.13;100.00;103538.03;5031886;28;20922;-44
2024/01/10 05:04:05;;;;;;;58.83;42.37;;;;;;;-4.09;100.00;103536.22;5020378;28;20808;-44
2024/01/10 05:06:32;;;;;;;49.70;41.23;;;;;;;-4.05;100.00;103532.63;5020841;28;20432;-43
2024/01/10 05:09:00;;;;;;;52.30;42.07;;;;;;;-4.01;100.00;103536.88;5013083;28;20519;-44
2024/01/10 05:11:28;;;;;;;51.90;41.90;;;;;;;-3.98;100.00;103531.59;5027950;28;20511;-42
2024/01/10 05:13:55;;;;;;;47.10;41.87;;;;;;;-3.95;100.00;103526.31;5032682;28;20881;-43
2024/01/10 05:16:23;;;;;;;51.00;41.80;;;;;;;-3.97;100.00;103528.94;5047034;23;20499;-39
2024/01/10 05:18:52;;;;;;;49.90;40.27;;;;;;;-3.95;100.00;103529.78;5016489;28;20463;-42
2024/01/10 05:21:20;;;;;;;46.43;40.00;;;;;;;-3.91;100.00;103535.75;5009678;28;20437;-42
2024/01/10 05:23:48;;;;;;;55.00;41.30;;;;;;;-3.87;100.00;103528.72;5008497;28;20441;-43
2024/01/10 05:26:16;;;;;;;50.70;40.33;;;;;;;-3.81;100.00;103528.59;5006597;28;20460;-41
2024/01/10 05:28:44;;;;;;;47.50;39.07;;;;;;;-3.80;100.00;103528.56;4997640;28;20898;-37
2024/01/10 05:31:12;;;;;;;47.23;37.90;;;;;;;-3.79;100.00;103521.59;4996782;28;20444;-39
2024/01/10 05:33:40;;;;;;;51.30;38.77;;;;;;;-3.78;100.00;103528.50;4988262;28;20434;-38
2024/01/10 05:36:11;;;;;;;57.17;43.47;;;;;;;-3.74;100.00;103514.50;4988370;28;20485;-42
2024/01/10 05:38:39;;;;;;;48.03;40.97;;;;;;;-3.73;100.00;103518.84;4989691;28;20477;-43
2024/01/10 05:41:07;;;;;;;46.47;39.70;;;;;;;-3.71;100.00;103523.13;4996282;28;21000;-39
2024/01/10 05:43:35;;;;;;;51.53;40.23;;;;;;;-3.70;100.00;103522.22;4989294;28;20529;-39
2024/01/10 05:46:04;;;;;;;48.07;40.23;;;;;;;-3.69;100.00;103528.28;4986038;28;20457;-41
2024/01/10 05:48:32;;;;;;;47.37;39.57;;;;;;;-3.66;100.00;103523.00;4988419;28;20949;-38
2024/01/10 05:51:02;;;;;;;41.70;36.97;;;;;;;-3.62;100.00;103525.50;4988442;28;20500;-41
2024/01/10 05:53:31;;;;;;;45.80;39.60;;;;;;;-3.60;100.00;103522.84;5004422;28;20436;-38
2024/01/10 05:55:58;;;;;;;43.27;36.60;;;;;;;-3.58;100.00;103529.72;4998553;28;20460;-44
2024/01/10 05:58:26;;;;;;;43.57;36.10;;;;;;;-3.56;100.00;103534.94;4994311;28;21223;-43
2024/01/10 06:00:54;;;;;;;41.80;37.50;;;;;;;-3.55;100.00;103534.88;5007791;28;20804;-42
2024/01/10 06:03:24;;;;;;;41.83;37.40;;;;;;;-3.52;100.00;103537.41;5002210;28;20797;-41
2024/01/10 06:05:52;;;;;;;41.43;36.37;;;;;;;-3.53;100.00;103540.06;4996966;28;20458;-38
2024/01/10 06:08:20;;;;;;;40.77;35.87;;;;;;;-3.50;100.00;103530.41;4995169;28;20798;-44
2024/01/10 06:10:50;;;;;;;38.63;34.40;;;;;;;-3.45;100.00;103538.97;5006241;28;20440;-41
2024/01/10 06:13:18;;;;;;;46.07;36.30;;;;;;;-3.43;100.00;103529.34;4993940;28;20513;-46
2024/01/10 06:15:46;;;;;;;41.60;36.70;;;;;;;-3.42;100.00;103531.06;5007810;28;20551;-36
2024/01/10 06:18:14;;;;;;;46.33;36.50;;;;;;;-3.41;100.00;103527.56;4988683;28;20840;-39
2024/01/10 06:20:42;;;;;;;46.27;36.63;;;;;;;-3.38;100.00;103529.25;4999655;28;20437;-39
2024/01/10 06:23:09;;;;;;;43.93;37.73;;;;;;;-3.40;100.00;103526.66;5011159;28;20499;-40
2024/01/10 06:25:37;;;;;;;44.30;37.87;;;;;;;-3.34;100.00;103530.84;4999606;28;20438;-40
2024/01/10 06:28:07;;;;;;;40.90;36.70;;;;;;;-3.30;100.00;103519.47;5001781;28;20464;-41
2024/01/10 06:30:35;;;;;;;42.10;37.60;;;;;;;-3.26;100.00;103523.72;5002002;28;20437;-39
2024/01/10 06:33:03;;;;;;;40.80;35.07;;;;;;;-3.21;100.00;103521.84;5003178;28;20441;-43
2024/01/10 06:35:32;;;;;;;40.43;36.30;;;;;;;-3.14;100.00;103518.16;5010104;28;20913;-45
2024/01/10 06:37:59;;;;;;;48.40;37.00;;;;;;;-3.10;100.00;103524.13;4999745;28;20539;-41
2024/01/10 06:40:27;;;;;;;43.83;38.23;;;;;;;-3.05;100.00;103517.06;5007419;28;20437;-43
2024/01/10 06:42:55;;;;;;;49.03;36.97;;;;;;;-3.00;100.00;103509.94;5009543;28;20457;-39
2024/01/10 06:45:24;;;;;;;50.07;39.70;;;;;;;-2.99;100.00;103514.28;4992412;28;20433;-39
2024/01/10 06:47:51;;;;;;;45.10;39.20;;;;;;;-2.96;100.00;103511.59;4999673;28;20825;-40
2024/01/10 06:50:20;;;;;;;42.10;37.70;;;;;;;-2.93;100.00;103517.56;4999364;28;20470;-42
2024/01/10 06:52:48;;;;;;;41.30;36.80;;;;;;;-2.91;100.00;103507.94;5012103;28;20433;-43
2024/01/10 06:55:18;;;;;;;43.63;39.37;;;;;;;-2.87;100.00;103512.16;5003841;28;20477;-40
2024/01/10 06:57:46;;;;;;;40.00;35.23;;;;;;;-2.85;100.00;103509.53;5001685;28;20457;-39
2024/01/10 07:00:15;;;;;;;41.40;37.07;;;;;;;-2.85;100.00;103520.84;5008711;28;20870;-41
2024/01/10 07:02:44;;;;;;;40.20;35.90;;;;;;;-2.80;100.00;103516.31;5013453;28;20438;-39
2024/01/10 07:05:11;;;;;;;41.43;37.00;;;;;;;-2.78;100.00;103516.31;5005602;28;20469;-41
2024/01/10 07:07:39;;;;;;;41.50;37.40;;;;;;;-2.76;100.00;103508.41;4998855;28;20524;-40
2024/01/10 07:10:08;;;;;;;43.70;35.23;;;;;;;-2.74;100.00;103514.44;4986630;28;20441;-42
2024/01/10 07:12:35;;;;;;;40.23;36.33;;;;;;;-2.71;100.00;103517.81;5003708;28;20977;-40
2024/01/10 07:15:04;;;;;;;42.03;37.83;;;;;;;-2.66;100.00;103522.94;5004232;28;20437;-42
2024/01/10 07:17:31;;;;;;;40.93;36.47;;;;;;;-2.69;100.00;103520.41;5002782;28;20485;-41
2024/01/10 07:20:01;;;;;;;44.50;39.60;;;;;;;-2.71;100.00;103528.25;4993524;28;20473;-43
2024/01/10 07:22:28;;;;;;;40.43;36.40;;;;;;;-2.70;100.00;103516.06;5011560;28;20441;-43
2024/01/10 07:24:56;;;;;;;43.30;37.70;;;;;;;-2.69;100.00;103509.94;4994918;28;20438;-39
2024/01/10 07:27:24;;;;;;;40.40;36.10;;;;;;;-2.66;100.00;103523.78;5001212;28;20808;-44
2024/01/10 07:29:52;;;;;;;41.97;37.47;;;;;;;-2.61;100.00;103515.81;5011111;28;20437;-43
2024/01/10 07:32:20;;;;;;;45.13;38.47;;;;;;;-2.59;100.00;103521.81;4998924;28;20470;-38
2024/01/10 07:34:48;;;;;;;42.27;36.97;;;;;;;-2.54;100.00;103523.41;5005511;28;20875;-40
2024/01/10 07:37:20;;;;;;;43.10;37.70;;;;;;;-2.50;100.00;103513.72;5003815;28;21037;-41
2024/01/10 07:39:50;;;;;;;49.37;42.23;;;;;;;-2.55;100.00;103516.50;4992010;28;20493;-41
2024/01/10 07:42:18;;;;;;;42.03;37.30;;;;;;;-2.51;100.00;103522.47;5004895;28;20437;-39
2024/01/10 07:44:46;;;;;;;48.87;39.10;;;;;;;-2.55;100.00;103519.09;4997159;28;20979;-41
2024/01/10 07:47:16;;;;;;;43.73;39.30;;;;;;;-2.53;100.00;103521.66;5009816;28;20459;-43
2024/01/10 07:49:44;;;;;;;43.10;37.17;;;;;;;-2.53;100.00;103511.19;4993044;28;20466;-40
2024/01/10 07:52:11;;;;;;;44.67;38.57;;;;;;;-2.48;100.00;103519.78;4995059;28;20453;-39
2024/01/10 07:54:40;;;;;;;44.87;38.93;;;;;;;-2.45;100.00;103517.06;4999892;28;20465;-43
2024/01/10 07:57:08;;;;;;;41.83;37.53;;;;;;;-2.40;100.00;103521.25;5011968;28;20563;-41
2024/01/10 07:59:36;;;;;;;45.60;38.43;;;;;;;-2.35;100.00;103516.75;4999455;28;20468;-40
2024/01/10 08:02:04;;;;;;;43.17;38.50;;;;;;;-2.31;100.00;103509.66;5010694;28;20460;-41
2024/01/10 08:04:32;;;;;;;45.80;37.70;;;;;;;-2.28;100.00;103510.44;5010008;28;20494;-38
2024/01/10 08:07:00;;;;;;;41.97;37.60;;;;;;;-2.22;100.00;103500.69;5002598;28;20860;-38
2024/01/10 08:09:29;;;;;;;41.90;37.50;;;;;;;-2.19;100.00;103511.06;5004915;28;20462;-41
2024/01/10 08:11:58;;;;;;;38.33;34.30;;;;;;;-2.15;100.00;103512.69;4998589;28;20521;-41
2024/01/10 08:14:26;;;;;;;42.70;36.97;;;;;;;-2.12;100.00;103508.19;4997848;28;20933;-37
2024/01/10 08:16:54;;;;;;;44.27;37.20;;;;;;;-2.09;100.00;103502.03;5007109;28;20518;-38
2024/01/10 08:19:22;;;;;;;43.17;38.40;;;;;;;-2.06;100.00;103496.72;4989649;28;20830;-39
2024/01/10 08:21:50;;;;;;;47.10;39.90;;;;;;;-2.01;100.00;103500.03;5006995;28;20515;-38
2024/01/10 08:24:18;;;;;;;41.20;36.80;;;;;;;-1.98;100.00;103503.41;5012750;28;20844;-38
2024/01/10 08:26:49;;;;;;;40.07;35.50;;;;;;;-1.97;100.00;103496.41;5002984;28;20453;-37
2024/01/10 08:29:18;;;;;;;46.70;38.60;;;;;;;-1.94;100.00;103499.75;4982165;28;20470;-41
2024/01/10 08:31:46;;;;;;;42.60;36.30;;;;;;;-1.90;100.00;103497.91;4999206;28;20516;-41
2024/01/10 08:34:14;;;;;;;42.43;38.10;;;;;;;-1.87;100.00;103497.81;5001608;28;20924;-41
2024/01/10 08:36:42;;;;;;;42.47;37.93;;;;;;;-1.82;100.00;103496.75;5012264;28;21148;-41
2024/01/10 08:39:11;;;;;;;42.57;37.30;;;;;;;-1.79;100.00;103494.03;4999071;28;20548;-41
2024/01/10 08:41:44;;;;;;;43.03;38.47;;;;;;;-1.72;100.00;103489.47;5008600;28;20441;-38
2024/01/10 08:44:12;;;;;;;45.50;36.93;;;;;;;-1.72;100.00;103495.56;5009733;28;20441;-38
2024/01/10 08:46:41;;;;;;;46.93;39.67;;;;;;;-1.66;100.00;103497.09;5001485;28;20540;-42
2024/01/10 08:49:09;;;;;;;45.07;38.40;;;;;;;-1.66;100.00;103494.50;5011857;28;20457;-39
2024/01/10 08:51:37;;;;;;;42.30;37.80;;;;;;;-1.59;100.00;103489.91;5001945;28;20477;-41
2024/01/10 08:54:05;;;;;;;41.30;37.20;;;;;;;-1.59;100.00;103487.31;4992715;28;20988;-40
2024/01/10 08:56:34;;;;;;;39.53;35.50;;;;;;;-1.58;100.00;103486.41;4999271;28;20543;-41
2024/01/10 08:59:02;;;;;;;40.03;36.03;;;;;;;-1.50;100.00;103487.00;5003054;28;20540;-41
2024/01/10 09:01:32;;;;;;;41.73;37.40;;;;;;;-1.45;100.00;103487.69;5009069;28;20438;-44
2024/01/10 09:04:01;;;;;;;41.70;37.47;;;;;;;-1.46;100.00;103485.97;4999730;28;20514;-43
2024/01/10 09:06:31;;;;;;;40.97;36.80;;;;;;;-1.39;100.00;103488.31;5008922;28;20453;-38
2024/01/10 09:08:58;;;;;;;40.80;36.37;;;;;;;-1.47;100.00;103495.59;5002231;28;20852;-40
2024/01/10 09:11:26;;;;;;;40.13;36.10;;;;;;;-1.45;100.00;103492.91;5000087;28;20524;-41
2024/01/10 09:13:54;;;;;;;38.83;35.03;;;;;;;-1.42;100.00;103503.28;5000630;28;20449;-41
2024/01/10 09:16:21;;;;;;;41.23;37.23;;;;;;;-1.46;100.00;103499.91;4994191;28;20519;-41
2024/01/10 09:18:50;;;;;;;38.83;35.13;;;;;;;-1.44;100.00;103492.03;4998189;28;20996;-40
2024/01/10 09:21:21;;;;;;;37.23;33.50;;;;;;;-1.35;100.00;103507.41;4988499;28;20438;-42
2024/01/10 09:23:51;;;;;;;39.10;35.00;;;;;;;-1.27;100.00;103508.00;4989210;28;20438;-39
2024/01/10 09:26:19;;;;;;;39.33;35.17;;;;;;;-1.34;100.00;103509.97;4992842;28;20460;-43
2024/01/10 09:28:46;;;;;;;41.03;36.00;;;;;;;-1.22;100.00;103511.28;4992860;28;20469;-39
2024/01/10 09:31:14;;;;;;;39.70;35.90;;;;;;;-1.16;100.00;103514.56;5006188;28;20456;-43
2024/01/10 09:33:43;;;;;;;41.50;37.60;;;;;;;-1.09;100.00;103511.72;4990125;28;20534;-41
2024/01/10 09:36:11;;;;;;;38.27;34.27;;;;;;;-1.05;100.00;103508.97;5002827;28;20519;-41
2024/01/10 09:38:40;;;;;;;36.27;32.67;;;;;;;-0.97;100.00;103512.16;4999609;28;20477;-39
2024/01/10 09:41:07;;;;;;;38.47;34.50;;;;;;;-0.89;100.00;103506.63;5008656;28;20440;-41
2024/01/10 09:43:35;;;;;;;40.60;36.63;;;;;;;-0.86;100.00;103510.00;5002345;28;20540;-40
2024/01/10 09:46:03;;;;;;;38.57;34.80;;;;;;;-0.79;100.00;103508.88;4999374;28;20465;-39
2024/01/10 09:48:32;;;;;;;37.07;33.27;;;;;;;-0.77;100.00;103507.03;5000268;28;20693;-39
2024/01/10 09:51:00;;;;;;;36.53;33.33;;;;;;;-0.80;100.00;103499.28;5008942;28;20808;-41
2024/01/10 09:53:30;;;;;;;40.07;35.87;;;;;;;-0.71;100.00;103519.91;4995192;28;20496;-39
2024/01/10 09:56:01;;;;;;;39.17;35.40;;;;;;;-0.66;100.00;103506.66;5006369;28;20445;-41
2024/01/10 09:58:29;;;;;;;38.73;34.93;;;;;;;-0.57;100.00;103512.38;5008473;28;20475;-42
2024/01/10 10:00:56;;;;;;;40.77;36.77;;;;;;;-0.50;100.00;103512.16;4997662;28;20438;-38
2024/01/10 10:03:24;;;;;;;37.57;33.97;;;;;;;-0.48;100.00;103510.34;5011954;28;20858;-41
2024/01/10 10:05:52;;;;;;;37.90;34.40;;;;;;;-0.43;100.00;103524.13;5003941;28;20476;-42
2024/01/10 10:08:22;;;;;;;35.50;32.23;;;;;;;-0.36;100.00;103513.34;5012872;28;20492;-38
2024/01/10 10:10:51;;;;;;;38.07;34.37;;;;;;;-0.29;100.00;103519.19;5004128;28;20437;-39
2024/01/10 10:13:27;;;;;;;37.27;33.53;;;;;;;-0.27;100.00;103512.97;4985112;28;20537;-38
2024/01/10 10:16:01;;;;;;;39.63;35.73;;;;;;;-0.18;100.00;103507.38;4991904;28;20971;-38
2024/01/10 10:18:30;;;;;;;34.30;31.30;;;;;;;-0.14;100.00;103505.50;5005037;28;20542;-38
2024/01/10 10:21:09;;;;;;;34.77;31.57;;;;;;;-0.03;100.00;103505.94;5005364;28;20655;-43
2024/01/10 10:23:37;;;;;;;34.73;31.50;;;;;;;-0.10;100.00;103512.34;5012390;28;20467;-39
2024/01/10 10:26:13;;;;;;;34.77;31.67;;;;;;;-0.20;100.00;103497.88;5009662;28;20857;-40
2024/01/10 10:28:44;;;;;;;35.87;32.77;;;;;;;-0.19;100.00;103497.81;5005889;28;20555;-40
2024/01/10 10:31:12;;;;;;;34.33;31.47;;;;;;;-0.07;100.00;103499.09;5011676;28;20516;-41
2024/01/10 10:33:40;;;;;;;35.97;32.50;;;;;;;-0.02;100.00;103492.75;5005361;28;20437;-41
2024/01/10 10:36:08;;;;;;;36.27;32.67;;;;;;;0.09;100.00;103492.31;4994743;28;20912;-41
2024/01/10 10:38:37;;;;;;;35.80;32.57;;;;;;;0.11;100.00;103482.63;5004072;28;20473;-41
2024/01/10 10:41:10;;;;;;;36.00;32.57;;;;;;;0.15;100.00;103488.59;5011382;28;20433;-38
2024/01/10 10:43:40;;;;;;;37.50;34.00;;;;;;;0.07;100.00;103491.53;5001812;28;20523;-44
2024/01/10 10:46:12;;;;;;;38.93;35.03;;;;;;;0.06;100.00;103494.22;5005752;28;20456;-37
2024/01/10 10:48:41;;;;;;;37.63;33.77;;;;;;;0.16;100.00;103490.28;5006935;28;20486;-38
2024/01/10 10:51:10;;;;;;;37.77;33.73;;;;;;;0.22;100.00;103485.66;5002106;28;20433;-38
2024/01/10 10:53:40;;;;;;;36.37;32.80;;;;;;;0.19;100.00;103483.16;4991867;28;20437;-41
2024/01/10 10:56:08;;;;;;;36.00;32.80;;;;;;;0.34;100.00;103490.41;5010031;28;20453;-43
2024/01/10 10:58:40;;;;;;;37.30;33.63;;;;;;;0.37;100.00;103492.91;5003813;28;20887;-42
2024/01/10 11:01:11;;;;;;;35.93;32.83;;;;;;;0.26;100.00;103491.63;5009256;28;20976;-41
2024/01/10 11:03:42;;;;;;;39.43;35.63;;;;;;;0.31;100.00;103482.66;5006124;28;20437;-44
2024/01/10 11:06:10;;;;;;;36.80;33.50;;;;;;;0.33;100.00;103480.81;4992010;28;20536;-38